Easley, SC (29640)

12:02 PM EST on February 06, 2016 (GMT -0500)
Easley Downtown | | Change Station
CLOSE
Current Station
Personal Weather Station
Location: Easley, SC
Elevation: 1040 ft
Nearby Weather Stations

Elev 1040 ft 34.82 °N, 82.60 °W | Updated 4 seconds ago

Partly Cloudy
Partly Cloudy
44.9 °F
Feels Like 45 °F
N
3.0
Wind Variable Wind from SW
Gusts 7.0 mph

Today
High -- | Low -- °F
--% Chance of Precip.
Yesterday
High -- | Low -- °F
Precip. -- in
Pressure 30.35 in
Visibility 10.0 miles
Clouds Clear
Windchill 45 °F
Dew Point 20 °F
Humidity 36%
Rainfall 0.00 in
Snow Depth Not available.
7:25 AM 6:04 PM
Waning Crescent, 5% visible
METAR KLQK 061655Z AUTO 10005KT 10SM CLR 07/M09 A3035 RMK AO2 T00721093
Pressure 30.35 in
Visibility 10.0 miles
Clouds Clear
Windchill 45 °F
Dew Point 20 °F
Humidity 36%
Rainfall 0.00 in
Snow Depth Not available.
7:25 AM 6:04 PM
Waning Crescent, 5% visible
METAR KLQK 061655Z AUTO 10005KT 10SM CLR 07/M09 A3035 RMK AO2 T00721093

10-Day Weather Forecast

Almanac

Astronomy

Feb. 06, 2016 Rise Set
Actual Time
Civil Twilight
Nautical Twilight
Astronomical Twilight
Moon
Length of Visible Light
Length of Day
Tomorrow will be .
, % of the Moon is Illuminated

Today's Extremes

State Highs State Lows

Community

WunderPhotos

Upload Photos

1,891,024 photos uploaded!

WunderBlog® & News

Nearby

Air Quality

  Air Quality AQ Index Pollutant
Not available.

Snow Depth

Station Depth Elevation

Earthquake Activity

City Distance Mag. Time & Date
Minimum magnitude displayed is 2.5.

Coastal Water Temperatures

Place Temperature

Stations

Nearby Weather Stations

Station Location Temp. Windchill Dew Point Humidity Wind Precip. Elev Updated Type
                   

Watches & Warnings

There are currently no watches in effect.